createdAt,value
2023-01-21T21:04:40.016Z,103982.56
2023-01-21T21:07:26.635Z,103995.63
2023-01-21T21:10:20.938Z,103988.13
2023-01-21T21:13:08.148Z,103992.56
2023-01-21T21:15:54.976Z,103984.44
2023-01-21T21:18:41.437Z,104001.81
2023-01-21T21:21:29.391Z,104001.69
2023-01-21T21:24:16.408Z,103995.25
2023-01-21T21:27:03.566Z,104000.75
2023-01-21T21:29:52.317Z,103995.38
2023-01-21T21:32:38.964Z,104004.47
2023-01-21T21:35:28.505Z,103995.50
2023-01-21T21:38:21.732Z,103991.22
2023-01-21T21:41:27.921Z,103999.56
2023-01-21T21:44:14.566Z,103986.53
2023-01-21T21:47:18.701Z,103991.59
2023-01-21T21:50:05.601Z,103982.63
2023-01-21T21:52:52.596Z,103983.22
2023-01-21T21:55:40.684Z,103975.91
2023-01-21T21:58:27.859Z,103981.56
2023-01-21T22:01:16.398Z,103984.88
2023-01-21T22:04:04.087Z,103968.88
2023-01-21T22:06:50.776Z,103978.16
2023-01-21T22:09:37.295Z,103972.09
2023-01-21T22:12:25.449Z,103981.53
2023-01-21T22:15:12.080Z,103962.88
2023-01-21T22:17:58.224Z,103932.44
2023-01-21T22:20:44.926Z,103943.81
2023-01-21T22:23:32.429Z,103916.03
2023-01-21T22:26:21.164Z,103915.50
2023-01-21T22:29:09.059Z,103910.13
2023-01-21T22:31:55.817Z,103896.03
2023-01-21T22:34:43.955Z,103882.47
2023-01-21T22:37:30.551Z,103885.03
2023-01-21T22:40:17.211Z,103892.03
2023-01-21T22:43:03.575Z,103892.81
2023-01-21T22:45:52.628Z,103875.97
2023-01-21T22:48:39.317Z,103883.22
2023-01-21T22:51:26.168Z,103870.41
2023-01-21T22:54:13.305Z,103880.44
2023-01-21T22:57:00.051Z,103878.31
2023-01-21T23:02:50.132Z,103859.56
2023-01-21T23:05:36.847Z,103852.00
2023-01-21T23:08:23.554Z,103844.88
2023-01-21T23:11:12.341Z,103838.38
2023-01-21T23:13:58.568Z,103834.00
2023-01-21T23:16:44.991Z,103831.75
2023-01-21T23:19:32.917Z,103838.38
2023-01-21T23:22:19.238Z,103832.41
2023-01-21T23:25:06.732Z,103843.88
2023-01-21T23:27:53.141Z,103833.81
2023-01-21T23:30:39.660Z,103843.31
2023-01-21T23:33:26.258Z,103836.72
2023-01-21T23:36:14.163Z,103835.63
2023-01-21T23:39:00.601Z,103836.81
2023-01-21T23:41:47.121Z,103822.75
2023-01-21T23:44:33.805Z,103826.97
2023-01-21T23:47:20.275Z,103826.53
2023-01-21T23:50:08.629Z,103823.00
2023-01-21T23:52:56.728Z,103812.56
2023-01-21T23:55:43.410Z,103813.16
2023-01-21T23:58:29.610Z,103789.41
